Time;durP1;ratioP1;P1;durP2;ratioP2;P2;SDS_P1;SDS_P2;PMS_P1;PMS_P2;Temp;Humidity;BMP_temperature;BMP_pressure;BME280_temperature;BME280_humidity;BME280_pressure;Samples;Min_cycle;Max_cycle;Signal;HPM_P1;HPM_P2
2022/11/22 00:01:02;;;;;;;5.93;5.63;;;6.70;99.90;;;;;;4971333;28;20182;-68
2022/11/22 00:03:28;;;;;;;5.60;5.20;;;6.70;99.90;;;;;;4972914;28;20247;-68
2022/11/22 00:05:53;;;;;;;6.37;5.87;;;6.70;99.90;;;;;;4973007;28;20177;-69
2022/11/22 00:08:19;;;;;;;8.13;5.60;;;6.70;99.90;;;;;;4972662;28;20675;-69
2022/11/22 00:10:46;;;;;;;5.77;5.43;;;6.70;99.90;;;;;;4972654;28;20169;-69
2022/11/22 00:13:12;;;;;;;5.73;5.30;;;6.70;99.90;;;;;;4972710;28;20207;-69
2022/11/22 00:15:37;;;;;;;5.17;4.87;;;6.70;99.90;;;;;;4972875;28;20205;-69
2022/11/22 00:18:03;;;;;;;5.10;4.70;;;6.70;99.90;;;;;;4972653;28;20205;-68
2022/11/22 00:20:29;;;;;;;8.03;5.53;;;6.70;99.90;;;;;;4972579;28;20838;-69
2022/11/22 00:22:56;;;;;;;6.30;5.60;;;6.70;99.90;;;;;;4972801;28;20186;-69
2022/11/22 00:25:22;;;;;;;6.20;5.60;;;6.70;99.90;;;;;;4972995;28;20548;-67
2022/11/22 00:27:47;;;;;;;5.80;5.43;;;6.70;99.90;;;;;;4972564;28;20189;-69
2022/11/22 00:30:13;;;;;;;5.73;5.23;;;6.70;99.90;;;;;;4972341;28;20178;-69
2022/11/22 00:32:39;;;;;;;6.00;5.50;;;6.70;99.90;;;;;;4972642;28;20205;-69
2022/11/22 00:35:05;;;;;;;6.63;6.17;;;6.70;99.90;;;;;;4971367;28;20213;-69
2022/11/22 00:37:30;;;;;;;6.57;5.93;;;6.70;99.90;;;;;;4972503;28;20280;-68
2022/11/22 00:39:56;;;;;;;5.77;5.47;;;6.70;99.90;;;;;;4973630;28;20604;-68
2022/11/22 00:42:21;;;;;;;6.67;5.67;;;6.70;99.90;;;;;;4976371;28;20644;-68
2022/11/22 00:44:47;;;;;;;5.57;5.10;;;6.70;99.90;;;;;;4975115;28;20188;-68
2022/11/22 00:47:13;;;;;;;5.40;5.10;;;6.70;99.90;;;;;;4976149;28;20178;-68
2022/11/22 00:49:38;;;;;;;6.10;5.70;;;6.70;99.90;;;;;;4976070;28;20209;-68
2022/11/22 00:52:04;;;;;;;5.70;5.40;;;6.70;99.90;;;;;;4976202;28;20197;-68
2022/11/22 00:54:30;;;;;;;8.67;6.30;;;6.70;99.90;;;;;;4974970;28;20188;-68
2022/11/22 00:56:55;;;;;;;8.93;5.83;;;6.70;99.90;;;;;;4974836;28;20217;-68
2022/11/22 00:59:21;;;;;;;5.93;5.43;;;6.70;99.90;;;;;;4974676;28;20188;-68
2022/11/22 01:01:46;;;;;;;9.80;5.83;;;6.70;99.90;;;;;;4974897;28;20229;-68
2022/11/22 01:04:12;;;;;;;5.93;5.63;;;6.80;99.90;;;;;;4974762;28;20284;-68
2022/11/22 01:06:37;;;;;;;5.63;5.40;;;6.80;99.90;;;;;;4974709;28;20174;-67
2022/11/22 01:09:03;;;;;;;6.17;5.57;;;6.80;99.90;;;;;;4975610;28;20209;-68
2022/11/22 01:11:29;;;;;;;7.90;5.83;;;6.80;99.90;;;;;;4975854;28;20184;-67
2022/11/22 01:13:54;;;;;;;5.30;4.90;;;6.80;99.90;;;;;;4975911;28;20260;-68
2022/11/22 01:16:20;;;;;;;5.57;5.27;;;6.80;99.90;;;;;;4976001;28;20185;-67
2022/11/22 01:18:46;;;;;;;5.73;5.43;;;6.70;99.90;;;;;;4974247;28;20680;-68
2022/11/22 01:21:12;;;;;;;5.50;5.20;;;6.70;99.90;;;;;;4975804;28;20188;-67
2022/11/22 01:23:37;;;;;;;5.80;5.30;;;6.70;99.90;;;;;;4974406;28;20273;-67
2022/11/22 01:26:07;;;;;;;6.20;5.60;;;6.60;99.90;;;;;;4975641;28;20205;-68
2022/11/22 01:28:33;;;;;;;7.03;6.03;;;6.60;99.90;;;;;;4974405;28;20221;-67
2022/11/22 01:30:59;;;;;;;5.70;5.40;;;6.50;99.90;;;;;;4975434;28;20181;-67
2022/11/22 01:33:24;;;;;;;5.87;5.43;;;6.50;99.90;;;;;;4975779;28;20181;-68
2022/11/22 01:35:50;;;;;;;5.93;5.50;;;7.00;99.90;;;;;;4975432;28;20205;-67
2022/11/22 01:38:15;;;;;;;5.77;5.47;;;6.40;99.90;;;;;;4975314;28;20193;-68
2022/11/22 01:40:41;;;;;;;6.27;5.47;;;6.40;99.90;;;;;;4975376;28;20659;-67
2022/11/22 01:43:26;;;;;;;6.47;5.97;;;6.40;99.90;;;;;;4975250;28;20178;-67
2022/11/22 01:45:57;;;;;;;5.60;5.40;;;6.30;99.90;;;;;;4975333;28;20177;-67
2022/11/22 01:48:28;;;;;;;5.60;5.20;;;6.20;99.90;;;;;;4973859;28;20217;-67
2022/11/22 01:51:02;;;;;;;6.10;5.70;;;6.20;99.90;;;;;;4973188;28;20646;-68
2022/11/22 01:53:34;;;;;;;5.63;5.33;;;6.20;99.90;;;;;;4975007;28;20466;-67
2022/11/22 01:56:03;;;;;;;5.83;5.60;;;6.20;99.90;;;;;;4973822;28;20186;-68
2022/11/22 01:58:32;;;;;;;5.57;5.10;;;6.20;99.90;;;;;;4975155;28;20197;-67
2022/11/22 02:00:59;;;;;;;5.47;5.23;;;6.20;99.90;;;;;;4973408;28;20181;-68
2022/11/22 02:03:26;;;;;;;5.40;5.10;;;6.20;99.90;;;;;;4975129;28;20189;-68
2022/11/22 02:05:53;;;;;;;5.50;5.30;;;6.20;99.90;;;;;;4974911;28;20174;-67
2022/11/22 02:08:36;;;;;;;5.23;4.93;;;6.20;99.90;;;;;;4974705;28;20263;-67
2022/11/22 02:11:03;;;;;;;5.27;4.90;;;6.20;99.90;;;;;;4973487;28;20201;-67
2022/11/22 02:13:33;;;;;;;5.63;5.33;;;6.10;99.90;;;;;;4973437;28;20185;-68
2022/11/22 02:15:59;;;;;;;5.57;5.13;;;6.10;99.90;;;;;;4973493;28;20182;-68
2022/11/22 02:18:25;;;;;;;5.83;5.53;;;6.00;99.90;;;;;;4974514;28;20221;-68
2022/11/22 02:20:52;;;;;;;5.03;4.83;;;5.90;99.90;;;;;;4973078;28;20561;-68
2022/11/22 02:23:36;;;;;;;5.93;5.57;;;5.80;99.90;;;;;;4974488;28;20177;-68
2022/11/22 02:26:02;;;;;;;5.50;5.10;;;5.70;99.90;;;;;;4973251;28;20177;-67
2022/11/22 02:28:31;;;;;;;5.30;5.00;;;5.60;99.90;;;;;;4973048;28;20699;-68
2022/11/22 02:30:56;;;;;;;5.67;5.40;;;5.60;99.90;;;;;;4972927;28;20328;-68
2022/11/22 02:33:22;;;;;;;5.80;5.40;;;5.50;99.90;;;;;;4974442;28;20257;-67
2022/11/22 02:35:48;;;;;;;6.13;5.73;;;5.50;99.90;;;;;;4974368;28;20201;-67
2022/11/22 02:38:24;;;;;;;5.87;5.47;;;5.40;99.90;;;;;;4972968;28;20201;-67
2022/11/22 02:40:58;;;;;;;5.80;5.50;;;5.40;99.90;;;;;;4972702;28;20530;-67
2022/11/22 02:43:30;;;;;;;6.33;5.93;;;5.30;99.90;;;;;;4972857;28;20186;-67
2022/11/22 02:46:02;;;;;;;6.23;5.80;;;5.30;99.90;;;;;;4972847;28;20181;-67
2022/11/22 02:48:28;;;;;;;5.40;5.00;;;5.20;99.90;;;;;;4974021;28;20213;-67
2022/11/22 02:50:53;;;;;;;5.63;5.43;;;5.20;99.90;;;;;;4973854;28;20182;-68
2022/11/22 02:53:19;;;;;;;6.17;5.77;;;5.20;99.90;;;;;;4973990;28;20181;-67
2022/11/22 02:55:44;;;;;;;5.90;5.60;;;5.10;99.90;;;;;;4972875;28;20178;-67
2022/11/22 02:58:10;;;;;;;5.97;5.63;;;5.10;99.90;;;;;;4972572;28;20766;-68
2022/11/22 03:00:38;;;;;;;6.50;5.33;;;5.10;99.90;;;;;;4973620;28;20177;-68
2022/11/22 03:03:04;;;;;;;5.73;5.53;;;5.00;99.90;;;;;;4972424;28;20213;-68
2022/11/22 03:05:29;;;;;;;5.90;5.50;;;5.00;99.90;;;;;;4972536;28;20458;-67
2022/11/22 03:07:55;;;;;;;6.00;5.70;;;4.90;99.90;;;;;;4972422;28;20636;-68
2022/11/22 03:10:20;;;;;;;6.77;5.97;;;4.90;99.90;;;;;;4973375;28;20177;-68
2022/11/22 03:12:46;;;;;;;5.87;5.57;;;4.90;99.90;;;;;;4972414;28;20177;-67
2022/11/22 03:15:12;;;;;;;6.30;5.93;;;4.80;99.90;;;;;;4972280;28;20189;-67
2022/11/22 03:17:37;;;;;;;5.90;5.47;;;4.80;99.90;;;;;;4972505;28;20676;-67
2022/11/22 03:20:04;;;;;;;7.17;6.50;;;4.80;99.90;;;;;;4973222;28;20181;-68
2022/11/22 03:22:29;;;;;;;6.40;6.10;;;4.70;99.90;;;;;;4972171;28;20214;-69
2022/11/22 03:24:55;;;;;;;6.27;5.80;;;4.70;99.90;;;;;;4971461;28;20229;-67
2022/11/22 03:27:21;;;;;;;6.43;6.13;;;4.60;99.90;;;;;;4973222;28;20208;-68
2022/11/22 03:29:46;;;;;;;6.40;6.00;;;4.60;99.90;;;;;;4973149;28;20746;-67
2022/11/22 03:32:12;;;;;;;6.73;5.47;;;4.50;99.90;;;;;;4973287;28;20207;-67
2022/11/22 03:34:37;;;;;;;5.83;5.53;;;4.50;99.90;;;;;;4972378;28;20515;-67
2022/11/22 03:37:03;;;;;;;5.53;5.23;;;4.40;99.90;;;;;;4973087;28;20169;-68
2022/11/22 03:39:28;;;;;;;6.10;5.70;;;4.40;99.90;;;;;;4971705;28;20703;-68
2022/11/22 03:41:55;;;;;;;6.07;5.47;;;4.40;99.90;;;;;;4971950;28;20182;-67
2022/11/22 03:44:21;;;;;;;10.03;5.93;;;4.50;99.90;;;;;;4973496;28;20234;-68
2022/11/22 03:46:47;;;;;;;7.57;6.20;;;4.50;99.90;;;;;;4973021;28;20610;-68
2022/11/22 03:49:12;;;;;;;8.10;7.50;;;4.50;99.90;;;;;;4972697;28;20292;-67
2022/11/22 03:51:38;;;;;;;10.40;7.33;;;4.50;99.90;;;;;;4971740;28;20177;-68
2022/11/22 03:54:04;;;;;;;6.83;6.23;;;4.40;99.90;;;;;;4973084;28;20654;-68
2022/11/22 03:56:29;;;;;;;5.83;5.50;;;4.40;99.90;;;;;;4972957;28;20181;-68
2022/11/22 03:58:55;;;;;;;6.97;6.40;;;4.40;99.90;;;;;;4972804;28;20197;-69
2022/11/22 04:01:21;;;;;;;7.57;6.90;;;4.40;99.90;;;;;;4971219;28;20558;-67
2022/11/22 04:03:46;;;;;;;6.33;5.80;;;4.30;99.90;;;;;;4971860;28;20181;-67
2022/11/22 04:06:12;;;;;;;6.40;6.10;;;4.30;99.90;;;;;;4972776;28;20204;-68
2022/11/22 04:08:37;;;;;;;6.77;6.37;;;4.30;99.90;;;;;;4972636;28;20213;-68
2022/11/22 04:11:03;;;;;;;6.27;5.97;;;4.30;99.90;;;;;;4971129;28;20231;-67
2022/11/22 04:16:14;;;;;;;7.33;6.93;;;4.20;99.90;;;;;;4977513;28;20191;-68
2022/11/22 04:18:40;;;;;;;8.27;7.70;;;4.20;99.90;;;;;;4979146;28;20358;-67
2022/11/22 04:25:12;;;;;;;7.43;7.10;;;4.10;99.90;;;;;;4979353;28;20671;-68
2022/11/22 04:26:35;;;;;;;7.87;7.20;;;4.10;99.90;;;;;;4978920;28;20192;-68
2022/11/22 04:29:01;;;;;;;8.30;7.60;;;4.10;99.90;;;;;;4978913;28;20699;-68
2022/11/22 04:34:10;;;;;;;8.30;7.73;;;4.10;99.90;;;;;;4979003;28;20731;-68
2022/11/22 04:36:36;;;;;;;8.00;7.30;;;4.00;99.90;;;;;;4977707;28;20268;-69
2022/11/22 04:39:02;;;;;;;8.00;7.40;;;4.00;99.90;;;;;;4978904;28;20205;-68
2022/11/22 04:41:27;;;;;;;7.73;7.33;;;4.00;99.90;;;;;;4978642;28;20185;-68
2022/11/22 04:46:37;;;;;;;8.60;8.00;;;4.00;99.90;;;;;;4978841;28;20188;-68
2022/11/22 04:49:03;;;;;;;8.53;7.90;;;4.00;99.90;;;;;;4978730;28;20209;-68
2022/11/22 04:54:12;;;;;;;8.07;7.50;;;4.20;99.90;;;;;;4979120;28;20192;-68
2022/11/22 04:56:38;;;;;;;6.77;6.37;;;4.20;99.90;;;;;;4977774;28;20181;-68
2022/11/22 04:59:04;;;;;;;7.07;6.03;;;4.30;99.90;;;;;;4977376;28;20724;-67
2022/11/22 05:01:29;;;;;;;6.23;5.83;;;4.30;99.90;;;;;;4978744;28;20510;-68
2022/11/22 05:03:55;;;;;;;5.80;5.50;;;4.30;99.90;;;;;;4978884;28;20239;-68
2022/11/22 05:06:20;;;;;;;6.90;6.30;;;4.40;99.90;;;;;;4978765;28;20182;-68
2022/11/22 05:08:46;;;;;;;11.57;5.40;;;4.40;99.90;;;;;;4978912;28;20205;-68
2022/11/22 05:11:11;;;;;;;6.03;5.73;;;4.40;99.90;;;;;;4978436;28;20181;-68
2022/11/22 05:13:39;;;;;;;7.43;6.73;;;4.40;99.90;;;;;;4977599;28;20177;-69
2022/11/22 05:16:07;;;;;;;10.60;6.77;;;4.40;99.90;;;;;;4978583;28;20177;-69
2022/11/22 05:18:33;;;;;;;6.77;6.23;;;4.30;99.90;;;;;;4977308;28;20221;-67
2022/11/22 05:21:07;;;;;;;7.53;6.50;;;4.30;99.90;;;;;;4978447;28;20192;-68
2022/11/22 05:26:17;;;;;;;6.30;6.00;;;4.30;99.90;;;;;;4976139;28;20557;-68
2022/11/22 05:28:42;;;;;;;5.60;5.30;;;4.30;99.90;;;;;;4974197;28;20336;-68
2022/11/22 05:31:16;;;;;;;5.93;5.63;;;4.30;99.90;;;;;;4973825;28;20272;-67
2022/11/22 05:33:44;;;;;;;6.77;6.07;;;4.30;99.90;;;;;;4974293;28;20332;-68
2022/11/22 05:36:11;;;;;;;6.20;5.90;;;4.30;99.90;;;;;;4973722;28;20181;-68
2022/11/22 05:38:37;;;;;;;7.07;6.07;;;4.30;99.90;;;;;;4973957;28;20225;-67
2022/11/22 05:41:05;;;;;;;6.40;5.80;;;4.30;99.90;;;;;;4974598;28;20182;-67
2022/11/22 05:43:30;;;;;;;6.90;6.27;;;4.20;99.90;;;;;;4975612;28;20181;-68
2022/11/22 05:46:05;;;;;;;6.10;5.80;;;4.20;99.90;;;;;;4975559;28;20181;-68
2022/11/22 05:48:30;;;;;;;6.90;5.97;;;4.20;99.90;;;;;;4975187;28;20556;-67
2022/11/22 05:50:56;;;;;;;6.97;6.47;;;4.20;99.90;;;;;;4974960;28;20228;-68
2022/11/22 05:53:21;;;;;;;7.80;7.30;;;4.10;99.90;;;;;;4974870;28;20240;-67
2022/11/22 05:55:47;;;;;;;7.67;6.87;;;4.10;99.90;;;;;;4975279;28;20176;-67
2022/11/22 05:58:13;;;;;;;6.60;6.30;;;4.10;99.90;;;;;;4973703;28;20695;-67
2022/11/22 06:00:38;;;;;;;7.53;6.80;;;4.00;99.90;;;;;;4974978;28;20537;-67
2022/11/22 06:03:04;;;;;;;8.77;6.50;;;4.00;99.90;;;;;;4972966;28;20177;-67
2022/11/22 06:05:29;;;;;;;6.43;6.13;;;4.00;99.90;;;;;;4974947;28;20257;-67
2022/11/22 06:07:59;;;;;;;8.23;7.63;;;4.00;99.90;;;;;;4974879;28;20568;-67
2022/11/22 06:10:25;;;;;;;6.77;6.37;;;4.00;99.90;;;;;;4989589;28;20185;-67
2022/11/22 06:12:50;;;;;;;10.50;7.83;;;4.00;99.90;;;;;;4973530;28;20648;-67
2022/11/22 06:15:16;;;;;;;7.97;7.37;;;4.00;99.90;;;;;;4989678;28;20197;-68
2022/11/22 06:17:42;;;;;;;7.87;7.00;;;4.00;99.90;;;;;;4973281;28;20714;-67
2022/11/22 06:20:08;;;;;;;7.20;6.80;;;4.00;99.90;;;;;;4989276;28;20182;-67
2022/11/22 06:22:33;;;;;;;8.43;6.53;;;4.00;99.90;;;;;;4973365;28;20188;-68
2022/11/22 06:24:59;;;;;;;7.27;6.60;;;4.00;99.90;;;;;;4973197;28;20181;-68
2022/11/22 06:27:25;;;;;;;7.30;6.80;;;4.00;99.90;;;;;;4974481;28;20268;-68
2022/11/22 06:29:50;;;;;;;8.10;7.33;;;4.00;99.90;;;;;;4972982;28;20205;-68
2022/11/22 06:32:16;;;;;;;7.73;7.10;;;4.00;99.90;;;;;;4974321;28;20181;-68
2022/11/22 06:34:41;;;;;;;7.60;6.80;;;4.00;99.90;;;;;;4974656;28;20177;-68
2022/11/22 06:37:07;;;;;;;7.60;7.07;;;4.00;99.90;;;;;;4972768;28;20174;-68
2022/11/22 06:39:33;;;;;;;7.77;7.17;;;4.00;99.90;;;;;;4972755;28;20276;-68
2022/11/22 06:41:58;;;;;;;6.43;6.13;;;4.00;99.90;;;;;;4974318;28;20664;-68
2022/11/22 06:44:24;;;;;;;7.00;6.70;;;3.90;99.90;;;;;;4972904;28;20675;-67
2022/11/22 06:46:49;;;;;;;10.10;6.93;;;3.90;99.90;;;;;;4972946;28;20185;-68
2022/11/22 06:49:15;;;;;;;7.57;6.87;;;3.90;99.90;;;;;;4972448;28;20209;-68
2022/11/22 06:51:40;;;;;;;7.13;6.83;;;3.90;99.90;;;;;;4973487;28;20181;-68
2022/11/22 06:54:10;;;;;;;16.20;7.40;;;3.80;99.90;;;;;;4988899;28;20177;-68
2022/11/22 06:56:37;;;;;;;9.07;7.40;;;3.80;99.90;;;;;;4974044;28;20173;-68
2022/11/22 06:59:04;;;;;;;7.40;6.77;;;3.80;99.90;;;;;;4972468;28;20255;-68
2022/11/22 07:01:32;;;;;;;8.43;7.70;;;3.80;99.90;;;;;;4972708;28;20554;-68
2022/11/22 07:03:58;;;;;;;7.57;7.17;;;3.70;99.90;;;;;;4971284;28;20177;-68
2022/11/22 07:06:27;;;;;;;7.67;7.13;;;3.70;99.90;;;;;;4972481;28;20331;-67
2022/11/22 07:08:53;;;;;;;9.30;7.80;;;3.70;99.90;;;;;;4972353;28;20267;-67
2022/11/22 07:11:21;;;;;;;9.17;8.47;;;3.80;99.90;;;;;;4973507;28;20166;-67
2022/11/22 07:13:47;;;;;;;8.30;7.47;;;3.80;99.90;;;;;;4972396;28;20189;-67
2022/11/22 07:16:15;;;;;;;8.10;7.43;;;3.80;99.90;;;;;;4972319;28;20197;-68
2022/11/22 07:18:41;;;;;;;7.83;7.27;;;3.90;99.90;;;;;;4973565;28;20213;-67
2022/11/22 07:21:09;;;;;;;8.87;8.03;;;3.90;99.90;;;;;;4972475;28;20181;-68
2022/11/22 07:23:37;;;;;;;6.87;6.20;;;4.00;99.90;;;;;;4971095;28;20185;-68
2022/11/22 07:26:03;;;;;;;7.07;6.73;;;4.00;99.90;;;;;;4972202;28;20240;-67
2022/11/22 07:28:29;;;;;;;7.73;7.23;;;4.00;99.90;;;;;;4973293;28;20201;-67
2022/11/22 07:30:59;;;;;;;9.77;8.93;;;4.10;99.90;;;;;;4971778;28;20191;-68
2022/11/22 07:33:25;;;;;;;7.77;6.87;;;4.20;99.90;;;;;;4972037;28;20174;-68
2022/11/22 07:35:50;;;;;;;6.90;6.37;;;4.20;99.90;;;;;;4973296;28;20560;-68
2022/11/22 07:38:16;;;;;;;8.10;6.77;;;4.20;99.90;;;;;;4971741;28;20741;-67
2022/11/22 07:40:41;;;;;;;7.63;7.03;;;4.20;99.90;;;;;;4971668;28;20184;-67
2022/11/22 07:43:07;;;;;;;8.73;7.67;;;4.30;99.90;;;;;;4973042;28;20248;-68
2022/11/22 07:45:33;;;;;;;6.23;5.90;;;4.30;99.90;;;;;;4971706;28;20177;-68
2022/11/22 07:47:59;;;;;;;12.70;8.13;;;4.30;99.90;;;;;;4971945;28;20361;-67
2022/11/22 07:50:26;;;;;;;14.13;6.37;;;4.30;99.90;;;;;;4970641;28;20236;-68
2022/11/22 07:52:56;;;;;;;9.30;6.40;;;4.40;99.90;;;;;;4973181;28;20169;-68
2022/11/22 07:55:24;;;;;;;8.40;6.33;;;4.40;99.90;;;;;;4971570;28;20181;-67
2022/11/22 07:57:50;;;;;;;10.50;6.30;;;4.40;99.90;;;;;;4972855;28;20324;-67
2022/11/22 08:00:16;;;;;;;8.70;6.73;;;4.40;99.90;;;;;;4971315;28;20182;-68
2022/11/22 08:02:41;;;;;;;8.70;5.90;;;4.50;99.90;;;;;;4972168;28;20582;-68
2022/11/22 08:05:07;;;;;;;7.00;6.20;;;4.50;99.90;;;;;;4972708;28;20408;-68
2022/11/22 08:07:33;;;;;;;6.57;6.27;;;4.60;99.90;;;;;;4972658;28;20272;-68
2022/11/22 08:09:58;;;;;;;6.70;6.07;;;4.70;99.90;;;;;;4972502;28;20206;-68
2022/11/22 08:12:24;;;;;;;6.23;5.73;;;4.70;99.90;;;;;;4972581;28;20173;-68
2022/11/22 08:14:49;;;;;;;13.83;6.60;;;4.80;99.90;;;;;;4972825;28;20174;-68
2022/11/22 08:17:15;;;;;;;6.80;6.30;;;5.00;99.90;;;;;;4972824;28;20220;-67
2022/11/22 08:19:40;;;;;;;8.50;6.30;;;5.30;99.90;;;;;;4971161;28;20177;-68
2022/11/22 08:22:06;;;;;;;6.60;6.10;;;5.50;99.90;;;;;;4972532;28;20559;-68
2022/11/22 08:24:32;;;;;;;9.47;6.03;;;5.90;99.90;;;;;;4971432;28;20174;-68
2022/11/22 08:26:58;;;;;;;6.30;5.90;;;6.20;99.90;;;;;;4971167;28;20200;-68
2022/11/22 08:29:23;;;;;;;7.97;7.37;;;6.60;99.90;;;;;;4972164;28;20213;-68
2022/11/22 08:31:49;;;;;;;7.70;6.13;;;7.10;99.90;;;;;;4972656;28;20174;-68
2022/11/22 08:34:15;;;;;;;6.37;5.77;;;7.50;99.90;;;;;;4972505;28;20169;-68
2022/11/22 08:36:40;;;;;;;9.30;7.00;;;8.00;99.90;;;;;;4972615;28;20650;-68
2022/11/22 08:39:06;;;;;;;6.67;5.97;;;8.10;99.90;;;;;;4973066;28;20213;-67
2022/11/22 08:41:31;;;;;;;12.47;6.50;;;7.90;99.90;;;;;;4972197;28;20217;-68
2022/11/22 08:43:57;;;;;;;11.67;6.10;;;7.70;99.90;;;;;;4971253;28;20670;-68
2022/11/22 08:46:22;;;;;;;6.17;5.87;;;7.50;99.90;;;;;;4972259;28;20189;-68
2022/11/22 08:48:51;;;;;;;7.10;6.50;;;7.30;99.90;;;;;;4972124;28;20201;-68
2022/11/22 08:51:17;;;;;;;6.73;6.10;;;7.20;99.90;;;;;;4970792;28;20182;-68
2022/11/22 08:53:43;;;;;;;7.13;6.53;;;7.20;99.90;;;;;;4972385;28;20169;-68
2022/11/22 08:56:11;;;;;;;7.20;6.30;;;7.10;99.90;;;;;;4972104;28;20180;-68
2022/11/22 08:58:37;;;;;;;6.97;6.43;;;7.10;99.90;;;;;;4972223;28;20193;-68
2022/11/22 09:01:14;;;;;;;7.10;5.63;;;7.10;99.90;;;;;;4973268;28;20228;-68
2022/11/22 09:03:41;;;;;;;7.20;6.60;;;7.10;99.90;;;;;;4975932;28;20181;-69
2022/11/22 09:06:09;;;;;;;9.20;5.83;;;7.00;99.90;;;;;;4976051;28;20184;-68
2022/11/22 09:08:36;;;;;;;6.73;6.13;;;6.90;99.90;;;;;;4974682;28;20197;-68
2022/11/22 09:11:13;;;;;;;6.37;6.00;;;6.90;99.90;;;;;;4974130;28;20177;-67
2022/11/22 09:13:40;;;;;;;6.67;6.17;;;6.90;99.90;;;;;;4974450;28;20173;-68
2022/11/22 09:16:12;;;;;;;8.63;7.03;;;6.90;99.90;;;;;;4974332;28;20169;-68
2022/11/22 09:18:38;;;;;;;6.87;6.47;;;6.90;99.90;;;;;;4974629;28;20209;-67
2022/11/22 09:21:06;;;;;;;5.97;5.67;;;7.00;99.90;;;;;;4975288;28;20201;-69
2022/11/22 09:23:33;;;;;;;11.67;6.03;;;7.00;99.90;;;;;;4973986;28;20182;-67
2022/11/22 09:26:04;;;;;;;11.50;6.57;;;7.20;99.90;;;;;;4974519;28;20235;-68
2022/11/22 09:28:31;;;;;;;6.40;5.40;;;7.50;99.90;;;;;;4971486;28;20205;-67
2022/11/22 09:31:03;;;;;;;9.17;5.43;;;7.60;99.90;;;;;;4975116;28;20171;-68
2022/11/22 09:33:30;;;;;;;6.77;6.00;;;7.90;99.90;;;;;;4975387;28;20178;-68
2022/11/22 09:35:59;;;;;;;6.33;5.47;;;8.40;99.90;;;;;;4973936;28;20177;-69
2022/11/22 09:38:25;;;;;;;5.27;5.03;;;8.40;99.60;;;;;;4974438;28;20201;-69
2022/11/22 09:40:51;;;;;;;6.80;6.40;;;8.40;99.90;;;;;;4975251;28;20174;-68
2022/11/22 09:43:35;;;;;;;7.43;5.07;;;8.40;97.80;;;;;;4974904;28;20224;-67
2022/11/22 09:46:16;;;;;;;5.13;4.80;;;8.30;92.90;;;;;;4975231;28;20247;-68
2022/11/22 09:49:07;;;;;;;6.10;5.70;;;8.30;93.30;;;;;;4973963;28;20581;-68
2022/11/22 09:51:43;;;;;;;6.43;5.60;;;8.30;91.20;;;;;;4967914;28;20185;-68
2022/11/22 09:54:17;;;;;;;7.03;5.10;;;8.30;93.00;;;;;;4974200;28;20318;-68
2022/11/22 09:56:43;;;;;;;5.47;5.17;;;8.40;96.10;;;;;;4973635;28;20169;-68
2022/11/22 09:59:22;;;;;;;5.20;4.70;;;8.60;99.90;;;;;;4973334;28;20201;-68
2022/11/22 10:01:58;;;;;;;6.57;4.80;;;9.20;28.10;;;;;;4973515;28;20565;-67
2022/11/22 10:05:02;;;;;;;6.80;5.03;;;9.60;5.00;;;;;;4974762;28;20192;-68
2022/11/22 10:07:39;;;;;;;5.47;4.80;;;9.60;1.00;;;;;;4974520;28;20224;-68
2022/11/22 10:10:30;;;;;;;4.40;4.10;;;9.50;1.00;;;;;;4973269;28;20209;-68
2022/11/22 10:13:15;;;;;;;4.80;4.60;;;9.40;1.00;;;;;;4967380;28;20329;-67
2022/11/22 10:16:06;;;;;;;4.60;4.40;;;9.20;1.00;;;;;;4973624;28;20193;-67
2022/11/22 10:18:43;;;;;;;7.47;7.03;;;9.00;19.10;;;;;;4973316;28;20228;-67
2022/11/22 10:21:12;;;;;;;5.20;4.90;;;8.90;17.00;;;;;;4973162;28;20484;-67
2022/11/22 10:23:39;;;;;;;5.30;5.00;;;8.80;25.00;;;;;;4973225;28;20209;-68
2022/11/22 10:26:14;;;;;;;4.90;4.60;;;8.80;39.80;;;;;;4973283;28;20538;-68
2022/11/22 10:28:52;;;;;;;5.63;5.33;;;8.80;43.80;;;;;;4974509;28;20232;-68
2022/11/22 10:31:21;;;;;;;5.00;4.80;;;8.80;57.90;;;;;;4974111;28;20175;-67
2022/11/22 10:34:05;;;;;;;4.47;4.27;;;8.80;57.70;;;;;;4973205;28;20265;-68
2022/11/22 10:37:23;;;;;;;5.23;4.93;;;8.80;44.30;;;;;;4973170;28;20180;-68
2022/11/22 10:40:01;;;;;;;5.60;5.17;;;8.90;42.70;;;;;;4952489;29;20178;-68
2022/11/22 10:42:55;;;;;;;5.80;5.50;;;8.90;36.30;;;;;;4952808;29;20185;-67
2022/11/22 10:45:45;;;;;;;5.07;4.87;;;8.80;25.80;;;;;;4970709;28;20585;-67
2022/11/22 10:48:26;;;;;;;5.60;5.30;;;8.90;14.50;;;;;;4973993;28;20204;-67
2022/11/22 10:51:09;;;;;;;4.53;4.33;;;9.10;33.10;;;;;;4972186;28;20598;-67
2022/11/22 10:54:10;;;;;;;4.90;4.50;;;9.30;21.40;;;;;;4972777;28;20169;-67
2022/11/22 10:57:06;;;;;;;4.27;4.07;;;9.50;12.60;;;;;;4970571;28;20186;-67
2022/11/22 11:00:05;;;;;;;4.00;3.80;;;9.80;6.30;;;;;;4971575;28;20193;-68
2022/11/22 11:02:43;;;;;;;3.70;3.60;;;10.00;1.00;;;;;;4972725;28;20179;-67
2022/11/22 11:05:13;;;;;;;4.17;3.97;;;10.20;1.00;;;;;;4973704;28;20663;-67
2022/11/22 11:07:47;;;;;;;4.40;4.20;;;10.10;1.00;;;;;;4972292;28;20683;-67
2022/11/22 11:10:20;;;;;;;4.27;4.00;;;10.00;1.00;;;;;;4973362;28;20695;-67
2022/11/22 11:12:48;;;;;;;5.93;4.33;;;9.90;1.00;;;;;;4972503;28;20173;-67
2022/11/22 11:15:42;;;;;;;4.80;4.50;;;9.80;1.00;;;;;;4970449;28;20174;-67
2022/11/22 11:18:51;;;;;;;4.07;3.87;;;9.60;1.00;;;;;;4972038;28;20213;-67
2022/11/22 11:21:17;;;;;;;8.30;4.40;;;9.60;1.00;;;;;;4951240;29;20204;-67
2022/11/22 11:23:42;;;;;;;6.63;4.10;;;9.90;1.00;;;;;;4951241;28;20178;-68
2022/11/22 11:26:14;;;;;;;4.80;3.67;;;10.40;1.00;;;;;;4950465;28;20185;-68
2022/11/22 11:28:39;;;;;;;3.20;3.10;;;11.10;1.00;;;;;;4971964;28;20566;-67
2022/11/22 11:31:12;;;;;;;4.10;3.90;;;11.50;99.90;;;;;;4972570;28;20170;-68
2022/11/22 11:33:39;;;;;;;4.23;3.70;;;11.70;99.90;;;;;;4972974;28;20303;-67
2022/11/22 11:36:14;;;;;;;3.60;3.33;;;11.80;1.00;;;;;;4971953;28;20178;-66
2022/11/22 11:38:39;;;;;;;3.80;3.60;;;11.60;1.00;;;;;;4971894;28;20196;-67
2022/11/22 11:41:16;;;;;;;4.40;4.10;;;11.40;1.00;;;;;;4971617;28;20674;-67
2022/11/22 11:43:42;;;;;;;4.20;4.00;;;11.60;1.00;;;;;;4973096;28;20651;-68
2022/11/22 11:46:23;;;;;;;3.70;3.50;;;12.00;1.00;;;;;;4971973;28;20235;-67
2022/11/22 11:48:54;;;;;;;4.27;4.07;;;12.40;1.00;;;;;;4973370;28;20705;-68
2022/11/22 11:51:36;;;;;;;3.30;3.20;;;12.30;1.00;;;;;;4972145;28;20192;-67
2022/11/22 11:54:14;;;;;;;3.60;3.50;;;12.20;1.00;;;;;;4973155;28;20181;-67
2022/11/22 11:56:43;;;;;;;4.07;3.87;;;12.00;1.00;;;;;;4973015;28;20686;-67
2022/11/22 11:59:21;;;;;;;4.27;3.90;;;12.00;1.00;;;;;;4987214;28;20296;-67
2022/11/22 12:01:54;;;;;;;4.00;3.70;;;12.10;1.00;;;;;;4991709;28;20238;-68
2022/11/22 12:04:26;;;;;;;3.80;3.50;;;12.00;1.00;;;;;;4992202;28;20169;-68
2022/11/22 12:07:04;;;;;;;4.27;4.07;;;12.00;1.00;;;;;;4992204;28;20646;-68
2022/11/22 12:09:35;;;;;;;3.50;3.40;;;11.90;1.00;;;;;;4990567;28;20220;-68
2022/11/22 12:12:33;;;;;;;3.90;3.70;;;11.80;1.00;;;;;;4990758;28;20259;-68
2022/11/22 12:15:14;;;;;;;4.83;3.90;;;11.30;1.00;;;;;;4977223;28;20185;-69
2022/11/22 12:17:53;;;;;;;4.20;3.90;;;11.10;1.00;;;;;;4991886;28;20600;-68
2022/11/22 12:20:47;;;;;;;3.93;3.73;;;10.90;1.00;;;;;;4991782;28;20181;-68
2022/11/22 12:23:41;;;;;;;4.10;3.90;;;10.80;1.00;;;;;;4991906;28;20177;-68
2022/11/22 12:26:07;;;;;;;4.10;3.90;;;10.60;1.00;;;;;;4991960;28;20169;-67
2022/11/22 12:28:33;;;;;;;4.00;3.80;;;10.50;1.00;;;;;;4990631;28;20209;-68
2022/11/22 12:30:59;;;;;;;4.67;4.33;;;10.50;1.00;;;;;;4991707;28;20639;-67
2022/11/22 12:33:39;;;;;;;4.60;4.40;;;10.40;99.90;;;;;;4991900;28;20181;-68
2022/11/22 12:36:36;;;;;;;4.70;4.40;;;10.20;24.00;;;;;;4992210;28;20181;-68
2022/11/22 12:39:03;;;;;;;4.20;4.00;;;10.10;99.90;;;;;;4994618;28;20240;-68
2022/11/22 12:41:32;;;;;;;4.17;4.00;;;10.00;99.90;;;;;;4995770;28;20184;-68
2022/11/22 12:44:01;;;;;;;4.43;4.23;;;9.80;1.00;;;;;;4994423;28;20212;-68
2022/11/22 12:46:38;;;;;;;4.20;4.00;;;9.70;57.60;;;;;;4995799;28;20188;-68
2022/11/22 12:49:14;;;;;;;4.60;4.30;;;9.60;69.40;;;;;;4994373;28;20239;-68
2022/11/22 12:52:09;;;;;;;4.30;4.10;;;9.60;1.00;;;;;;4995052;28;20165;-66
2022/11/22 12:54:59;;;;;;;4.40;4.10;;;9.70;99.90;;;;;;4995910;28;20634;-68
2022/11/22 12:57:39;;;;;;;4.70;4.40;;;9.80;1.00;;;;;;4995703;28;20589;-67
2022/11/22 13:00:13;;;;;;;4.77;4.57;;;9.80;1.00;;;;;;4995593;28;20556;-68
2022/11/22 13:03:07;;;;;;;4.50;4.30;;;9.90;1.00;;;;;;4994486;28;20183;-68
2022/11/22 13:05:39;;;;;;;4.07;3.90;;;9.70;79.90;;;;;;4995596;28;20173;-69
2022/11/22 13:08:13;;;;;;;4.50;4.30;;;9.70;1.00;;;;;;4994172;28;20247;-67
2022/11/22 13:10:44;;;;;;;4.60;4.40;;;9.60;1.00;;;;;;4994005;28;20204;-67
2022/11/22 13:13:25;;;;;;;4.90;4.70;;;9.50;1.00;;;;;;4994086;28;20196;-68
2022/11/22 13:15:53;;;;;;;4.33;4.10;;;9.50;99.90;;;;;;4995352;28;20173;-68
2022/11/22 13:18:23;;;;;;;4.33;4.13;;;9.60;1.00;;;;;;4993743;28;20279;-68
2022/11/22 13:21:14;;;;;;;4.30;4.10;;;9.60;99.90;;;;;;5006230;23;20222;-65
2022/11/22 13:24:13;;;;;;;4.43;4.23;;;9.50;1.00;;;;;;4954369;29;20237;-65
2022/11/22 13:26:56;;;;;;;4.60;4.40;;;9.60;1.00;;;;;;4956454;29;20184;-65
2022/11/22 13:29:27;;;;;;;4.07;3.97;;;9.60;99.90;;;;;;4956021;28;20202;-66